Time;durP1;ratioP1;P1;durP2;ratioP2;P2;SDS_P1;SDS_P2;PMS_P1;PMS_P2;Temp;Humidity;BMP_temperature;BMP_pressure;BME280_temperature;BME280_humidity;BME280_pressure;Samples;Min_cycle;Max_cycle;Signal;HPM_P1;HPM_P2
2022/11/15 00:01:53;;;;;;;42.00;20.37;;;;;;;;;;5067855;28;20064;-63
2022/11/15 00:04:18;;;;;;;42.13;20.73;;;;;;;;;;5073405;28;20047;-63
2022/11/15 00:06:43;;;;;;;40.63;20.57;;;;;;;;;;5087520;28;20099;-63
2022/11/15 00:09:08;;;;;;;47.63;22.83;;;;;;;;;;5091567;28;20095;-63
2022/11/15 00:11:33;;;;;;;43.07;21.83;;;;;;;;;;5073478;28;20074;-63
2022/11/15 00:14:02;;;;;;;45.10;22.17;;;;;;;;;;5080832;28;20099;-63
2022/11/15 00:16:27;;;;;;;51.33;23.10;;;;;;;;;;5065136;28;20419;-63
2022/11/15 00:18:52;;;;;;;52.80;23.23;;;;;;;;;;5059909;28;20108;-63
2022/11/15 00:21:18;;;;;;;50.27;24.00;;;;;;;;;;5071362;28;20028;-63
2022/11/15 00:23:43;;;;;;;45.90;22.50;;;;;;;;;;5075233;28;20053;-63
2022/11/15 00:26:12;;;;;;;49.13;22.67;;;;;;;;;;5074849;28;20087;-63
2022/11/15 00:28:38;;;;;;;51.90;23.80;;;;;;;;;;5089839;28;20012;-63
2022/11/15 00:31:04;;;;;;;49.70;22.77;;;;;;;;;;5083479;28;20083;-63
2022/11/15 00:33:29;;;;;;;49.93;23.13;;;;;;;;;;5065156;28;20115;-63
2022/11/15 00:35:59;;;;;;;49.10;23.83;;;;;;;;;;5083346;28;20103;-63
2022/11/15 00:38:24;;;;;;;52.07;23.40;;;;;;;;;;5089332;28;20036;-64
2022/11/15 00:40:49;;;;;;;52.87;24.87;;;;;;;;;;5071774;28;20371;-63
2022/11/15 00:43:15;;;;;;;50.20;24.63;;;;;;;;;;5066408;28;20032;-63
2022/11/15 00:45:40;;;;;;;50.33;24.90;;;;;;;;;;5071330;28;20021;-64
2022/11/15 00:48:05;;;;;;;51.97;24.47;;;;;;;;;;5061638;28;20020;-63
2022/11/15 00:50:30;;;;;;;42.67;22.80;;;;;;;;;;5059177;28;20028;-63
2022/11/15 00:52:55;;;;;;;42.23;21.97;;;;;;;;;;5061075;28;20373;-63
2022/11/15 00:55:21;;;;;;;41.40;21.63;;;;;;;;;;5071008;28;20032;-63
2022/11/15 00:57:46;;;;;;;39.17;21.13;;;;;;;;;;5067138;28;20020;-63
2022/11/15 01:00:11;;;;;;;36.33;20.87;;;;;;;;;;5070280;28;20075;-63
2022/11/15 01:02:36;;;;;;;34.37;19.97;;;;;;;;;;5067510;28;20122;-64
2022/11/15 01:05:02;;;;;;;33.23;19.07;;;;;;;;;;5070407;28;20070;-64
2022/11/15 01:07:27;;;;;;;31.87;17.70;;;;;;;;;;5074666;28;20020;-64
2022/11/15 01:09:52;;;;;;;32.10;18.77;;;;;;;;;;5064758;28;20504;-64
2022/11/15 01:12:17;;;;;;;28.83;17.03;;;;;;;;;;5058837;28;20495;-63
2022/11/15 01:14:43;;;;;;;30.67;17.57;;;;;;;;;;5079773;28;20376;-63
2022/11/15 01:17:08;;;;;;;30.37;17.43;;;;;;;;;;5077999;28;20487;-64
2022/11/15 01:19:33;;;;;;;25.60;16.87;;;;;;;;;;5084966;28;20070;-63
2022/11/15 01:21:58;;;;;;;29.93;16.97;;;;;;;;;;5062809;28;20024;-63
2022/11/15 01:24:24;;;;;;;29.03;16.97;;;;;;;;;;5071252;28;20349;-64
2022/11/15 01:26:49;;;;;;;29.73;16.90;;;;;;;;;;5088478;28;20463;-64
2022/11/15 01:29:14;;;;;;;27.97;16.70;;;;;;;;;;5073374;28;20456;-64
2022/11/15 01:31:39;;;;;;;29.07;15.93;;;;;;;;;;5060681;28;20033;-64
2022/11/15 01:34:04;;;;;;;25.50;15.07;;;;;;;;;;5076382;28;20373;-64
2022/11/15 01:36:30;;;;;;;25.97;15.33;;;;;;;;;;5060166;28;20555;-63
2022/11/15 01:38:58;;;;;;;25.67;15.00;;;;;;;;;;5067161;28;20533;-64
2022/11/15 01:41:25;;;;;;;25.33;15.20;;;;;;;;;;5068296;28;20028;-64
2022/11/15 01:43:55;;;;;;;25.17;14.70;;;;;;;;;;5091179;28;20025;-64
2022/11/15 01:46:34;;;;;;;24.23;13.87;;;;;;;;;;5071286;28;20054;-64
2022/11/15 01:49:03;;;;;;;25.23;13.80;;;;;;;;;;5079519;28;20020;-63
2022/11/15 01:51:31;;;;;;;26.87;13.70;;;;;;;;;;5054505;28;20086;-64
2022/11/15 01:53:59;;;;;;;25.17;13.40;;;;;;;;;;5076456;28;20521;-63
2022/11/15 01:56:27;;;;;;;24.50;14.23;;;;;;;;;;5071302;28;20372;-64
2022/11/15 01:58:53;;;;;;;21.93;10.20;;;;;;;;;;5064883;28;20025;-64
2022/11/15 02:01:19;;;;;;;23.70;12.67;;;;;;;;;;5062872;28;20499;-65
2022/11/15 02:03:56;;;;;;;26.50;13.80;;;;;;;;;;5053711;28;20028;-64
2022/11/15 02:06:22;;;;;;;21.93;12.03;;;;;;;;;;5053865;28;20130;-64
2022/11/15 02:08:47;;;;;;;22.27;12.70;;;;;;;;;;5078250;28;21547;-64
2022/11/15 02:11:13;;;;;;;23.57;13.63;;;;;;;;;;5064984;28;20035;-63
2022/11/15 02:13:38;;;;;;;22.00;11.83;;;;;;;;;;5069652;28;20016;-64
2022/11/15 02:16:04;;;;;;;21.87;12.17;;;;;;;;;;5071318;28;20527;-64
2022/11/15 02:18:33;;;;;;;21.67;12.13;;;;;;;;;;5063430;28;20025;-64
2022/11/15 02:21:14;;;;;;;21.20;11.47;;;;;;;;;;5063848;28;20391;-64
2022/11/15 02:23:57;;;;;;;21.53;12.23;;;;;;;;;;5071669;28;20033;-64
2022/11/15 02:26:25;;;;;;;22.77;12.40;;;;;;;;;;5069958;28;20543;-64
2022/11/15 02:28:57;;;;;;;19.67;11.43;;;;;;;;;;5080804;28;20055;-64
2022/11/15 02:31:25;;;;;;;21.23;12.80;;;;;;;;;;5076674;28;20020;-64
2022/11/15 02:33:50;;;;;;;20.27;11.43;;;;;;;;;;5093580;28;20032;-64
2022/11/15 02:36:21;;;;;;;20.57;11.40;;;;;;;;;;5076021;28;20374;-64
2022/11/15 02:39:02;;;;;;;21.27;11.18;;;;;;;;;;5085473;28;20033;-64
2022/11/15 02:41:27;;;;;;;22.23;13.02;;;;;;;;;;5069597;28;20028;-64
2022/11/15 02:44:12;;;;;;;23.63;12.63;;;;;;;;;;5087639;28;20372;-64
2022/11/15 02:49:22;;;;;;;18.80;11.13;;;;;;;;;;5070241;28;20141;-64
2022/11/15 02:51:48;;;;;;;19.30;11.27;;;;;;;;;;5081497;28;20603;-64
2022/11/15 02:54:15;;;;;;;21.63;12.90;;;;;;;;;;5075142;28;20029;-64
2022/11/15 02:56:41;;;;;;;19.80;11.23;;;;;;;;;;5054377;28;20124;-64
2022/11/15 02:59:22;;;;;;;23.97;13.10;;;;;;;;;;5062848;28;20024;-64
2022/11/15 03:02:02;;;;;;;21.77;12.53;;;;;;;;;;5057106;28;20027;-64
2022/11/15 03:04:46;;;;;;;21.00;12.50;;;;;;;;;;5053125;28;20020;-64
2022/11/15 03:07:14;;;;;;;21.77;12.67;;;;;;;;;;5079008;28;20031;-64
2022/11/15 03:09:39;;;;;;;20.93;12.50;;;;;;;;;;5078767;28;20460;-64
2022/11/15 03:12:11;;;;;;;20.73;12.20;;;;;;;;;;5052398;28;20025;-64
2022/11/15 03:14:40;;;;;;;20.37;11.33;;;;;;;;;;5052016;28;20021;-64
2022/11/15 03:17:08;;;;;;;19.43;11.97;;;;;;;;;;5067308;28;20028;-64
2022/11/15 03:19:38;;;;;;;19.07;11.20;;;;;;;;;;5064464;28;20435;-64
2022/11/15 03:22:07;;;;;;;19.50;11.30;;;;;;;;;;5060250;28;20082;-64
2022/11/15 03:24:34;;;;;;;22.37;10.67;;;;;;;;;;5056379;28;20471;-64
2022/11/15 03:27:01;;;;;;;17.67;9.80;;;;;;;;;;5054253;28;20025;-64
2022/11/15 03:29:29;;;;;;;21.23;11.40;;;;;;;;;;5063814;28;20029;-64
2022/11/15 03:31:57;;;;;;;16.90;10.87;;;;;;;;;;5057805;28;20060;-64
2022/11/15 03:34:27;;;;;;;17.80;10.63;;;;;;;;;;5065990;28;20492;-64
2022/11/15 03:36:52;;;;;;;17.97;10.47;;;;;;;;;;5082155;28;20089;-64
2022/11/15 03:39:18;;;;;;;17.47;10.50;;;;;;;;;;5076168;28;20471;-64
2022/11/15 03:41:49;;;;;;;18.33;10.23;;;;;;;;;;5082384;28;20031;-64
2022/11/15 03:44:21;;;;;;;16.73;10.25;;;;;;;;;;5069760;28;20535;-64
2022/11/15 03:46:51;;;;;;;16.17;9.60;;;;;;;;;;5070348;28;20067;-64
2022/11/15 03:49:33;;;;;;;17.57;9.93;;;;;;;;;;5071644;28;20016;-64
2022/11/15 03:51:59;;;;;;;17.50;9.93;;;;;;;;;;5057006;28;20035;-64
2022/11/15 03:54:24;;;;;;;19.43;10.27;;;;;;;;;;5080946;28;20024;-64
2022/11/15 03:56:49;;;;;;;16.17;10.23;;;;;;;;;;5071053;28;20039;-62
2022/11/15 03:59:14;;;;;;;17.67;9.93;;;;;;;;;;5055680;28;20044;-62
2022/11/15 04:01:40;;;;;;;18.10;10.07;;;;;;;;;;5070836;28;20086;-62
2022/11/15 04:04:05;;;;;;;18.67;11.17;;;;;;;;;;5071882;28;20430;-62
2022/11/15 04:06:30;;;;;;;16.73;9.90;;;;;;;;;;5076153;28;20436;-62
2022/11/15 04:08:55;;;;;;;19.20;10.50;;;;;;;;;;5057737;28;20476;-62
2022/11/15 04:11:20;;;;;;;16.77;9.83;;;;;;;;;;5081578;28;20475;-62
2022/11/15 04:13:46;;;;;;;17.30;8.73;;;;;;;;;;5060434;28;20484;-61
2022/11/15 04:16:11;;;;;;;17.43;9.57;;;;;;;;;;5067383;28;20480;-61
2022/11/15 04:18:36;;;;;;;18.27;9.73;;;;;;;;;;5078298;28;20522;-62
2022/11/15 04:26:29;;;;;;;18.03;9.70;;;;;;;;;;5062225;28;20067;-62
2022/11/15 04:31:39;;;;;;;18.77;10.07;;;;;;;;;;5069059;28;20036;-62
2022/11/15 04:34:04;;;;;;;17.80;9.43;;;;;;;;;;5085488;28;20024;-63
2022/11/15 04:39:13;;;;;;;16.63;9.37;;;;;;;;;;5063230;28;20094;-62
2022/11/15 04:41:40;;;;;;;16.10;9.50;;;;;;;;;;5064790;28;20057;-62
2022/11/15 04:44:05;;;;;;;15.73;9.33;;;;;;;;;;5058476;28;20032;-63
2022/11/15 04:46:30;;;;;;;14.93;9.50;;;;;;;;;;5063255;28;20033;-62
2022/11/15 04:48:55;;;;;;;16.63;9.43;;;;;;;;;;5068340;28;20024;-62
2022/11/15 04:51:21;;;;;;;17.80;9.77;;;;;;;;;;5075753;28;20028;-63
2022/11/15 04:53:46;;;;;;;16.03;10.10;;;;;;;;;;5063896;28;20483;-62
2022/11/15 04:56:11;;;;;;;16.67;10.07;;;;;;;;;;5065777;28;20036;-62
2022/11/15 04:58:37;;;;;;;17.53;9.80;;;;;;;;;;5063497;28;20040;-62
2022/11/15 05:01:13;;;;;;;16.87;9.60;;;;;;;;;;5071235;28;20032;-63
2022/11/15 05:06:22;;;;;;;17.90;10.33;;;;;;;;;;5062925;28;20070;-62
2022/11/15 05:08:47;;;;;;;19.77;9.87;;;;;;;;;;5057768;28;20044;-62
2022/11/15 05:11:13;;;;;;;14.23;9.30;;;;;;;;;;5068190;28;20089;-61
2022/11/15 05:13:38;;;;;;;17.73;9.13;;;;;;;;;;5070941;28;20024;-62
2022/11/15 05:16:03;;;;;;;15.87;9.50;;;;;;;;;;5058351;28;20040;-62
2022/11/15 05:18:28;;;;;;;16.17;9.30;;;;;;;;;;5068918;28;20052;-62
2022/11/15 05:20:54;;;;;;;14.23;9.07;;;;;;;;;;5069835;28;20467;-62
2022/11/15 05:23:19;;;;;;;13.67;8.70;;;;;;;;;;5063459;28;20412;-62
2022/11/15 05:25:44;;;;;;;18.43;8.10;;;;;;;;;;5062931;28;20472;-63
2022/11/15 05:28:09;;;;;;;17.23;8.93;;;;;;;;;;5063681;28;20133;-62
2022/11/15 05:30:34;;;;;;;13.53;8.87;;;;;;;;;;5058787;28;20063;-62
2022/11/15 05:33:00;;;;;;;14.27;8.40;;;;;;;;;;5075489;28;20035;-62
2022/11/15 05:35:31;;;;;;;13.23;8.20;;;;;;;;;;5067571;28;20028;-63
2022/11/15 05:37:56;;;;;;;14.40;8.90;;;;;;;;;;5066088;28;20029;-62
2022/11/15 05:40:21;;;;;;;12.70;8.03;;;;;;;;;;5078142;28;20406;-62
2022/11/15 05:42:47;;;;;;;18.40;9.00;;;;;;;;;;5071467;28;20024;-62
2022/11/15 05:45:13;;;;;;;11.53;8.27;;;;;;;;;;5070546;28;20127;-62
2022/11/15 05:47:38;;;;;;;16.83;9.00;;;;;;;;;;5075885;28;20103;-62
2022/11/15 05:50:03;;;;;;;17.13;8.70;;;;;;;;;;5058029;28;20021;-62
2022/11/15 05:52:30;;;;;;;14.80;8.03;;;;;;;;;;5062103;28;20023;-61
2022/11/15 05:54:56;;;;;;;14.83;8.93;;;;;;;;;;5082348;28;20051;-62
2022/11/15 05:57:21;;;;;;;14.93;8.23;;;;;;;;;;5056181;28;20106;-62
2022/11/15 05:59:47;;;;;;;14.60;8.63;;;;;;;;;;5050243;28;20068;-62
2022/11/15 06:02:12;;;;;;;13.67;8.37;;;;;;;;;;5058532;28;20029;-63
2022/11/15 06:04:37;;;;;;;15.37;8.70;;;;;;;;;;5054198;28;20039;-62
2022/11/15 06:07:02;;;;;;;13.60;8.00;;;;;;;;;;5059417;28;20031;-62
2022/11/15 06:09:28;;;;;;;15.00;8.73;;;;;;;;;;5053742;28;20103;-61
2022/11/15 06:11:53;;;;;;;12.37;7.90;;;;;;;;;;5063959;28;20074;-62
2022/11/15 06:14:18;;;;;;;13.37;8.13;;;;;;;;;;5069260;28;20497;-62
2022/11/15 06:16:44;;;;;;;13.83;9.27;;;;;;;;;;5071747;28;20483;-62
2022/11/15 06:19:09;;;;;;;14.00;8.80;;;;;;;;;;5062777;28;20020;-62
2022/11/15 06:21:34;;;;;;;12.83;8.27;;;;;;;;;;5067180;28;20029;-62
2022/11/15 06:23:59;;;;;;;14.13;8.57;;;;;;;;;;5066469;28;20111;-62
2022/11/15 06:26:24;;;;;;;16.10;9.00;;;;;;;;;;5062700;28;20423;-61
2022/11/15 06:28:50;;;;;;;14.50;8.77;;;;;;;;;;5056045;28;20564;-62
2022/11/15 06:31:15;;;;;;;15.50;8.77;;;;;;;;;;5069211;28;20052;-62
2022/11/15 06:33:40;;;;;;;13.27;8.50;;;;;;;;;;5084835;28;20028;-61
2022/11/15 06:36:07;;;;;;;12.73;7.57;;;;;;;;;;5078285;28;20106;-62
2022/11/15 06:38:32;;;;;;;14.83;8.30;;;;;;;;;;5070219;28;20024;-62
2022/11/15 06:41:01;;;;;;;14.17;8.87;;;;;;;;;;5072348;28;20468;-61
2022/11/15 06:43:27;;;;;;;16.23;8.83;;;;;;;;;;5074216;28;20024;-62
2022/11/15 06:45:52;;;;;;;14.97;8.97;;;;;;;;;;5075350;28;20031;-62
2022/11/15 06:48:17;;;;;;;14.50;8.50;;;;;;;;;;5084351;28;20086;-61
2022/11/15 06:50:42;;;;;;;16.33;8.80;;;;;;;;;;5084571;28;20114;-62
2022/11/15 06:53:07;;;;;;;16.97;9.20;;;;;;;;;;5063257;28;20580;-62
2022/11/15 06:55:33;;;;;;;16.83;9.50;;;;;;;;;;5069532;28;20102;-62
2022/11/15 06:57:58;;;;;;;14.50;9.97;;;;;;;;;;5078767;28;20586;-62
2022/11/15 07:00:23;;;;;;;21.47;11.03;;;;;;;;;;5064889;28;20730;-62
2022/11/15 07:02:49;;;;;;;18.87;10.37;;;;;;;;;;5072350;28;20056;-60
2022/11/15 07:05:14;;;;;;;16.13;9.53;;;;;;;;;;5081614;28;20012;-61
2022/11/15 07:07:40;;;;;;;16.77;10.30;;;;;;;;;;5064491;28;20064;-60
2022/11/15 07:10:05;;;;;;;16.53;9.70;;;;;;;;;;5072703;28;20357;-61
2022/11/15 07:12:31;;;;;;;20.13;9.60;;;;;;;;;;5073786;28;20046;-61
2022/11/15 07:14:56;;;;;;;18.23;10.57;;;;;;;;;;5073675;28;20636;-61
2022/11/15 07:17:21;;;;;;;16.33;9.73;;;;;;;;;;5073553;28;20017;-60
2022/11/15 07:19:46;;;;;;;14.90;8.87;;;;;;;;;;5063389;28;20025;-62
2022/11/15 07:22:11;;;;;;;15.83;8.87;;;;;;;;;;5069706;28;20028;-61
2022/11/15 07:24:37;;;;;;;16.33;9.30;;;;;;;;;;5070125;28;20025;-62
2022/11/15 07:27:02;;;;;;;14.67;9.40;;;;;;;;;;5073199;28;20029;-62
2022/11/15 07:29:27;;;;;;;16.27;9.63;;;;;;;;;;5071200;28;20130;-61
2022/11/15 07:31:52;;;;;;;15.37;10.13;;;;;;;;;;5073362;28;20042;-62
2022/11/15 07:34:18;;;;;;;20.43;9.93;;;;;;;;;;5073028;28;20506;-62
2022/11/15 07:36:43;;;;;;;15.30;9.60;;;;;;;;;;5071317;28;20036;-61
2022/11/15 07:39:09;;;;;;;15.77;9.63;;;;;;;;;;5072953;28;20581;-61
2022/11/15 07:41:34;;;;;;;16.47;9.83;;;;;;;;;;5073067;28;20031;-61
2022/11/15 07:44:00;;;;;;;16.70;10.10;;;;;;;;;;5083587;28;20074;-62
2022/11/15 07:46:25;;;;;;;16.37;9.73;;;;;;;;;;5082877;28;20082;-62
2022/11/15 07:48:50;;;;;;;18.40;10.10;;;;;;;;;;5072733;28;20032;-62
2022/11/15 07:51:16;;;;;;;15.33;10.17;;;;;;;;;;5070677;28;20020;-61
2022/11/15 07:53:44;;;;;;;16.40;9.63;;;;;;;;;;5073002;28;20028;-61
2022/11/15 07:56:09;;;;;;;14.60;9.83;;;;;;;;;;5071394;28;20031;-61
2022/11/15 07:58:35;;;;;;;14.50;9.53;;;;;;;;;;5072561;28;20024;-62
2022/11/15 08:01:04;;;;;;;15.70;9.70;;;;;;;;;;5072410;28;20024;-62
2022/11/15 08:03:29;;;;;;;18.17;9.47;;;;;;;;;;5072687;28;20103;-62
2022/11/15 08:05:54;;;;;;;16.40;9.27;;;;;;;;;;5070197;28;20463;-62
2022/11/15 08:08:19;;;;;;;15.57;8.90;;;;;;;;;;5070798;28;20372;-61
2022/11/15 08:10:45;;;;;;;15.13;9.13;;;;;;;;;;5072306;28;20384;-63
2022/11/15 08:13:11;;;;;;;16.13;10.30;;;;;;;;;;5072114;28;20020;-62
2022/11/15 08:15:37;;;;;;;20.23;10.80;;;;;;;;;;5069745;28;20075;-62
2022/11/15 08:18:06;;;;;;;19.57;9.90;;;;;;;;;;5072216;28;20472;-62
2022/11/15 08:20:31;;;;;;;14.33;8.50;;;;;;;;;;5091994;28;20081;-62
2022/11/15 08:22:57;;;;;;;13.97;9.47;;;;;;;;;;5071048;28;20107;-62
2022/11/15 08:25:23;;;;;;;13.70;8.47;;;;;;;;;;5082109;28;20318;-62
2022/11/15 08:27:51;;;;;;;15.93;8.30;;;;;;;;;;5092586;28;20051;-62
2022/11/15 08:30:16;;;;;;;16.07;10.23;;;;;;;;;;5092023;28;20027;-62
2022/11/15 08:32:41;;;;;;;17.07;10.03;;;;;;;;;;5092527;28;20024;-62
2022/11/15 08:35:07;;;;;;;21.93;9.87;;;;;;;;;;5075186;28;20028;-63
2022/11/15 08:37:32;;;;;;;17.27;9.80;;;;;;;;;;5068641;28;20060;-63
2022/11/15 08:39:57;;;;;;;15.87;9.23;;;;;;;;;;5070834;28;20086;-62
2022/11/15 08:42:22;;;;;;;14.20;9.67;;;;;;;;;;5071583;28;20033;-62
2022/11/15 08:44:48;;;;;;;13.77;9.00;;;;;;;;;;5071698;28;20016;-62
2022/11/15 08:47:13;;;;;;;17.97;9.23;;;;;;;;;;5071866;28;20096;-62
2022/11/15 08:49:38;;;;;;;16.70;9.47;;;;;;;;;;5070811;28;20056;-62
2022/11/15 08:52:04;;;;;;;16.53;9.60;;;;;;;;;;5069843;28;20375;-62
2022/11/15 08:54:29;;;;;;;17.27;9.67;;;;;;;;;;5072064;28;20571;-62
2022/11/15 08:56:54;;;;;;;15.40;9.10;;;;;;;;;;5071811;28;20525;-62
2022/11/15 08:59:19;;;;;;;15.40;9.27;;;;;;;;;;5070429;28;20435;-62
2022/11/15 09:01:45;;;;;;;13.27;7.93;;;;;;;;;;5071754;28;20029;-62
2022/11/15 09:04:10;;;;;;;13.20;8.80;;;;;;;;;;5069579;28;20529;-62
2022/11/15 09:06:35;;;;;;;13.23;9.27;;;;;;;;;;5068979;28;20032;-63
2022/11/15 09:09:01;;;;;;;12.60;7.90;;;;;;;;;;5077088;28;20024;-62
2022/11/15 09:11:26;;;;;;;13.37;8.83;;;;;;;;;;5092003;28;20047;-62
2022/11/15 09:13:51;;;;;;;13.43;8.83;;;;;;;;;;5070784;28;20029;-62
2022/11/15 09:16:17;;;;;;;15.60;8.50;;;;;;;;;;5066471;28;20037;-62
2022/11/15 09:18:42;;;;;;;13.87;7.80;;;;;;;;;;5069785;28;20028;-64
2022/11/15 09:21:08;;;;;;;14.50;8.33;;;;;;;;;;5066871;28;20024;-63
2022/11/15 09:23:34;;;;;;;17.20;8.50;;;;;;;;;;5071357;28;20170;-62
2022/11/15 09:26:00;;;;;;;13.93;8.07;;;;;;;;;;5071347;28;20135;-62
2022/11/15 09:28:25;;;;;;;13.20;7.70;;;;;;;;;;5071093;28;20037;-62
2022/11/15 09:30:50;;;;;;;11.67;7.30;;;;;;;;;;5069924;28;20043;-62
2022/11/15 09:33:16;;;;;;;12.83;7.80;;;;;;;;;;5070438;28;20091;-63
2022/11/15 09:35:41;;;;;;;13.77;7.53;;;;;;;;;;5073343;28;20028;-62
2022/11/15 09:38:06;;;;;;;13.07;7.67;;;;;;;;;;5072107;28;20127;-63
2022/11/15 09:40:32;;;;;;;12.60;7.53;;;;;;;;;;5071444;28;20060;-62
2022/11/15 09:43:15;;;;;;;11.65;7.25;;;;;;;;;;5071497;28;20460;-63
2022/11/15 09:45:48;;;;;;;13.33;7.17;;;;;;;;;;5070460;28;20047;-62
2022/11/15 09:48:27;;;;;;;14.70;7.40;;;;;;;;;;5058570;28;20024;-62
2022/11/15 09:50:58;;;;;;;12.90;6.63;;;;;;;;;;5070498;28;20379;-62
2022/11/15 09:53:31;;;;;;;10.80;6.38;;;;;;;;;;5072069;28;20036;-62
2022/11/15 09:55:56;;;;;;;11.43;6.97;;;;;;;;;;5073952;28;20032;-62
2022/11/15 09:58:30;;;;;;;9.45;6.05;;;;;;;;;;5075416;28;20534;-62
2022/11/15 10:00:59;;;;;;;14.30;6.43;;;;;;;;;;5074751;28;20029;-62
2022/11/15 10:03:35;;;;;;;10.70;6.18;;;;;;;;;;5075405;28;20472;-62
2022/11/15 10:06:02;;;;;;;10.20;6.20;;;;;;;;;;5072951;28;20020;-62
2022/11/15 10:08:40;;;;;;;10.57;6.18;;;;;;;;;;5074200;28;20023;-62
2022/11/15 10:11:07;;;;;;;8.25;5.60;;;;;;;;;;5094937;28;20032;-62
2022/11/15 10:13:34;;;;;;;10.93;5.78;;;;;;;;;;5095137;28;20185;-62
2022/11/15 10:16:15;;;;;;;8.57;5.57;;;;;;;;;;5094883;28;20078;-62
2022/11/15 10:18:43;;;;;;;11.45;5.63;;;;;;;;;;5087592;28;20498;-62
2022/11/15 10:21:19;;;;;;;9.07;5.22;;;;;;;;;;5052581;28;20039;-62
2022/11/15 10:23:44;;;;;;;13.23;5.18;;;;;;;;;;5072398;28;20487;-62
2022/11/15 10:26:14;;;;;;;8.48;4.80;;;;;;;;;;5074180;28;20028;-62
2022/11/15 10:28:40;;;;;;;8.90;4.85;;;;;;;;;;5075623;28;20455;-62
2022/11/15 10:31:20;;;;;;;8.65;5.03;;;;;;;;;;5092760;28;20031;-63
2022/11/15 10:33:45;;;;;;;6.68;4.20;;;;;;;;;;5079629;28;20564;-63
2022/11/15 10:36:13;;;;;;;6.30;4.03;;;;;;;;;;5074220;28;20119;-63
2022/11/15 10:38:48;;;;;;;6.65;4.03;;;;;;;;;;5074060;28;20036;-62
2022/11/15 10:41:13;;;;;;;7.55;4.10;;;;;;;;;;5074204;28;20379;-61
2022/11/15 10:43:39;;;;;;;5.78;3.75;;;;;;;;;;5072363;28;20025;-62
2022/11/15 10:46:20;;;;;;;8.73;3.80;;;;;;;;;;5073334;28;20210;-61
2022/11/15 10:48:46;;;;;;;;;;;;;;;;;;5074394;28;20104;-62
2022/11/15 10:51:20;;;;;;;9.02;3.45;;;;;;;;;;5069431;28;19994;-62
2022/11/15 10:53:46;;;;;;;7.18;3.67;;;;;;;;;;5072561;28;20484;-62
2022/11/15 10:56:12;;;;;;;5.38;3.40;;;;;;;;;;5072347;28;20108;-62
2022/11/15 10:58:39;;;;;;;9.98;5.32;;;;;;;;;;5074063;28;20051;-62
2022/11/15 11:01:19;;;;;;;6.10;2.90;;;;;;;;;;5073789;28;20029;-62
2022/11/15 11:03:45;;;;;;;6.35;3.13;;;;;;;;;;5073416;28;20056;-62
2022/11/15 11:06:17;;;;;;;5.43;3.00;;;;;;;;;;5066890;28;20037;-62
2022/11/15 11:08:55;;;;;;;24.80;4.85;;;;;;;;;;5075502;28;20451;-62
2022/11/15 11:11:20;;;;;;;6.22;2.83;;;;;;;;;;5064982;28;20431;-63
2022/11/15 11:13:45;;;;;;;8.30;3.25;;;;;;;;;;5053637;28;20025;-61
2022/11/15 11:16:13;;;;;;;5.07;2.45;;;;;;;;;;5064119;28;20087;-62
2022/11/15 11:18:39;;;;;;;5.50;2.90;;;;;;;;;;5068388;28;20360;-62
2022/11/15 11:21:09;;;;;;;5.85;2.70;;;;;;;;;;5070794;28;20039;-61
2022/11/15 11:23:55;;;;;;;6.05;2.60;;;;;;;;;;5073330;28;20020;-62
2022/11/15 11:26:26;;;;;;;4.78;2.67;;;;;;;;;;5073050;28;20020;-62
2022/11/15 11:28:51;;;;;;;4.43;2.50;;;;;;;;;;5070442;28;20059;-62
2022/11/15 11:31:28;;;;;;;8.23;2.72;;;;;;;;;;5073089;28;20056;-62
2022/11/15 11:34:16;;;;;;;5.45;2.30;;;;;;;;;;5071098;28;20033;-62
2022/11/15 11:36:49;;;;;;;4.22;2.20;;;;;;;;;;5035198;28;20071;-63
2022/11/15 11:39:14;;;;;;;5.20;2.30;;;;;;;;;;5072886;28;20025;-62
2022/11/15 11:41:45;;;;;;;4.90;2.03;;;;;;;;;;5073282;28;20071;-63
2022/11/15 11:44:26;;;;;;;4.15;2.10;;;;;;;;;;5078476;28;20055;-63
2022/11/15 11:46:56;;;;;;;4.03;1.80;;;;;;;;;;5073096;28;20036;-62
2022/11/15 11:49:24;;;;;;;9.15;2.20;;;;;;;;;;5071059;28;20082;-63
2022/11/15 11:52:00;;;;;;;4.00;1.90;;;;;;;;;;5072885;28;20120;-60
2022/11/15 11:54:45;;;;;;;3.17;1.70;;;;;;;;;;5072710;28;20161;-61
2022/11/15 11:57:28;;;;;;;3.85;1.70;;;;;;;;;;5071679;28;20494;-60
2022/11/15 12:00:15;;;;;;;6.20;1.90;;;;;;;;;;5071881;28;20036;-60
2022/11/15 12:02:43;;;;;;;4.00;1.63;;;;;;;;;;5072462;28;20020;-61
2022/11/15 12:05:27;;;;;;;3.38;1.55;;;;;;;;;;5070320;28;20056;-60
2022/11/15 12:07:53;;;;;;;3.38;1.58;;;;;;;;;;5072366;28;20016;-60
2022/11/15 12:10:18;;;;;;;3.72;1.50;;;;;;;;;;5088930;28;20077;-60
2022/11/15 12:12:46;;;;;;;3.63;1.42;;;;;;;;;;5092719;28;20102;-60
2022/11/15 12:15:15;;;;;;;3.22;1.30;;;;;;;;;;5078580;28;20040;-60
2022/11/15 12:17:40;;;;;;;3.42;1.23;;;;;;;;;;5069971;28;20504;-61
2022/11/15 12:20:16;;;;;;;2.90;1.27;;;;;;;;;;5070158;28;20056;-60
2022/11/15 12:22:44;;;;;;;5.88;1.30;;;;;;;;;;5072366;28;20028;-60
2022/11/15 12:25:28;;;;;;;2.42;1.20;;;;;;;;;;5071148;28;20468;-60
2022/11/15 12:27:56;;;;;;;4.80;1.30;;;;;;;;;;5072143;28;20017;-60
2022/11/15 12:30:23;;;;;;;2.50;1.20;;;;;;;;;;5071847;28;20020;-63
2022/11/15 12:32:56;;;;;;;10.50;1.58;;;;;;;;;;5091222;28;20024;-61
2022/11/15 12:35:35;;;;;;;4.30;1.17;;;;;;;;;;5071414;28;20376;-60
2022/11/15 12:38:01;;;;;;;2.22;1.20;;;;;;;;;;5071749;28;20035;-61
2022/11/15 12:40:29;;;;;;;2.08;0.93;;;;;;;;;;5071738;28;20033;-60
2022/11/15 12:42:57;;;;;;;2.45;1.10;;;;;;;;;;5051814;28;20027;-60
2022/11/15 12:45:25;;;;;;;3.70;1.00;;;;;;;;;;5070812;28;20415;-60
2022/11/15 12:47:50;;;;;;;3.83;1.30;;;;;;;;;;5071993;28;20027;-60
2022/11/15 12:50:15;;;;;;;4.38;1.30;;;;;;;;;;5069447;28;20467;-61
2022/11/15 12:53:00;;;;;;;3.15;1.20;;;;;;;;;;5071657;28;20468;-60
2022/11/15 12:55:30;;;;;;;3.13;1.20;;;;;;;;;;5070436;28;20040;-60
2022/11/15 12:58:15;;;;;;;3.30;1.20;;;;;;;;;;5071907;28;20043;-60
2022/11/15 13:00:40;;;;;;;3.88;1.52;;;;;;;;;;5071404;28;20095;-60
2022/11/15 13:03:16;;;;;;;4.97;1.40;;;;;;;;;;5068943;28;20032;-60
2022/11/15 13:05:44;;;;;;;4.07;1.15;;;;;;;;;;5066077;28;20079;-60
2022/11/15 13:08:09;;;;;;;3.35;1.40;;;;;;;;;;5071751;28;20020;-61
2022/11/15 13:10:34;;;;;;;2.90;1.20;;;;;;;;;;5086921;28;20096;-61
2022/11/15 13:13:01;;;;;;;3.85;1.40;;;;;;;;;;5069681;28;20083;-60
2022/11/15 13:15:29;;;;;;;5.38;1.30;;;;;;;;;;5054355;28;20021;-60
2022/11/15 13:17:55;;;;;;;4.43;1.50;;;;;;;;;;5051320;28;20056;-60
2022/11/15 13:20:27;;;;;;;4.65;1.20;;;;;;;;;;5063863;28;20025;-61
2022/11/15 13:23:04;;;;;;;3.42;1.25;;;;;;;;;;5071654;28;20028;-60
2022/11/15 13:25:35;;;;;;;2.55;1.10;;;;;;;;;;5071431;28;20087;-60
2022/11/15 13:28:02;;;;;;;13.73;1.85;;;;;;;;;;5072464;28;20082;-61
2022/11/15 13:30:29;;;;;;;4.30;1.20;;;;;;;;;;5073936;28;20087;-61
2022/11/15 13:32:54;;;;;;;2.42;1.13;;;;;;;;;;5075567;28;20020;-61
2022/11/15 13:35:26;;;;;;;4.70;1.65;;;;;;;;;;5073454;28;20388;-61
2022/11/15 13:37:53;;;;;;;4.28;1.33;;;;;;;;;;5075603;28;20052;-61
2022/11/15 13:40:27;;;;;;;3.72;1.33;;;;;;;;;;5074302;28;20036;-61
2022/11/15 13:42:52;;;;;;;3.13;1.30;;;;;;;;;;5086216;28;20032;-61
2022/11/15 13:45:18;;;;;;;11.47;1.80;;;;;;;;;;5095424;28;20525;-61
2022/11/15 13:47:43;;;;;;;6.07;1.50;;;;;;;;;;5081181;28;20630;-61
2022/11/15 13:50:12;;;;;;;4.50;1.30;;;;;;;;;;5072857;28;20020;-61
2022/11/15 13:52:40;;;;;;;7.57;1.40;;;;;;;;;;5075027;28;20023;-61
2022/11/15 13:55:13;;;;;;;3.13;1.20;;;;;;;;;;5075342;28;20030;-60
2022/11/15 13:57:45;;;;;;;3.10;1.20;;;;;;;;;;5075327;28;20391;-60
2022/11/15 14:00:29;;;;;;;3.73;1.17;;;;;;;;;;5073700;28;20059;-61
2022/11/15 14:02:55;;;;;;;5.40;1.10;;;;;;;;;;5073130;28;20036;-61
2022/11/15 14:05:21;;;;;;;4.80;1.20;;;;;;;;;;5074908;28;20391;-61
2022/11/15 14:07:54;;;;;;;6.53;1.07;;;;;;;;;;5073674;28;20047;-61
2022/11/15 14:10:27;;;;;;;4.57;1.10;;;;;;;;;;5073444;28;20028;-61
2022/11/15 14:12:53;;;;;;;2.70;1.00;;;;;;;;;;5074677;28;20071;-61
2022/11/15 14:15:24;;;;;;;2.80;1.20;;;;;;;;;;5074918;28;20035;-61
2022/11/15 14:17:49;;;;;;;3.15;1.10;;;;;;;;;;5074458;28;20028;-61
2022/11/15 14:20:32;;;;;;;3.50;1.27;;;;;;;;;;5072621;28;20111;-61
2022/11/15 14:23:05;;;;;;;2.23;1.00;;;;;;;;;;5074740;28;20380;-61
2022/11/15 14:25:31;;;;;;;3.50;1.10;;;;;;;;;;5072048;28;20028;-61
2022/11/15 14:28:16;;;;;;;4.67;1.27;;;;;;;;;;5074604;28;20016;-62
2022/11/15 14:30:42;;;;;;;3.00;1.20;;;;;;;;;;5072069;28;20024;-62
2022/11/15 14:33:24;;;;;;;4.90;1.20;;;;;;;;;;5074235;28;20399;-62
2022/11/15 14:35:50;;;;;;;2.70;1.30;;;;;;;;;;5080960;28;20771;-61
2022/11/15 14:38:15;;;;;;;2.87;1.10;;;;;;;;;;5094506;28;20030;-61
2022/11/15 14:40:42;;;;;;;5.43;1.40;;;;;;;;;;5092567;28;20078;-64
2022/11/15 14:43:11;;;;;;;4.40;1.40;;;;;;;;;;5074261;28;20499;-61
2022/11/15 14:45:37;;;;;;;5.00;1.30;;;;;;;;;;5074025;28;20383;-60
2022/11/15 14:48:02;;;;;;;4.13;1.23;;;;;;;;;;5074234;28;20091;-60
2022/11/15 14:50:27;;;;;;;22.00;2.10;;;;;;;;;;5070828;28;20108;-61
2022/11/15 14:52:53;;;;;;;13.27;1.83;;;;;;;;;;5073265;28;20056;-60